createdAt,value
2023-03-21T00:01:56.239Z,160.94285
2023-03-21T00:06:57.836Z,146.8989
2023-03-21T00:11:59.534Z,130.3069
2023-03-21T00:17:01.276Z,116.0852
2023-03-21T00:22:07.994Z,107.20765
2023-03-21T00:27:34.618Z,104.7908
2023-03-21T00:32:55.252Z,105.32515
2023-03-21T00:37:57.782Z,103.60995
2023-03-21T00:42:59.397Z,97.8007
2023-03-21T00:48:01.258Z,91.807
2023-03-21T00:53:02.906Z,87.58365
2023-03-21T00:58:04.529Z,73.27255
2023-03-21T01:03:17.548Z,65.0103
2023-03-21T01:08:29.356Z,59.8647
2023-03-21T01:13:34.563Z,49.64765
2023-03-21T01:18:38.183Z,43.1006
2023-03-21T01:23:39.973Z,36.55355
2023-03-21T01:28:41.637Z,28.84465
2023-03-21T01:33:43.277Z,25.04535
2023-03-21T01:38:44.949Z,18.1294
2023-03-21T01:43:46.597Z,15.3075
2023-03-21T01:48:48.245Z,9.5534
2023-03-21T01:53:50.039Z,10.4015
2023-03-21T01:58:51.640Z,8.50185
2023-03-21T02:03:53.283Z,3.85445
2023-03-21T02:08:54.925Z,1.53075
2023-03-21T02:14:06.411Z,0.47405
2023-03-21T02:19:08.918Z,1.16185
2023-03-21T02:24:10.563Z,0
2023-03-21T02:29:12.166Z,0
2023-03-21T02:34:13.841Z,0
2023-03-21T02:39:15.522Z,0
2023-03-21T02:44:17.157Z,0
2023-03-21T02:49:18.932Z,0
2023-03-21T02:54:34.989Z,0
2023-03-21T02:59:51.580Z,0
2023-03-21T03:04:55.386Z,0
2023-03-21T03:09:57.028Z,0
2023-03-21T03:15:03.464Z,0
2023-03-21T03:20:15.662Z,0
2023-03-21T03:25:25.020Z,0
2023-03-21T03:30:41.205Z,0
2023-03-21T03:35:48.272Z,0
2023-03-21T03:40:55.015Z,0
2023-03-21T03:45:56.622Z,0
2023-03-21T03:50:58.236Z,0
2023-03-21T03:56:00.010Z,0
2023-03-21T04:01:01.687Z,0
2023-03-21T04:06:03.296Z,0
2023-03-21T04:11:04.915Z,0
2023-03-21T04:16:06.624Z,0
2023-03-21T04:21:08.232Z,0
2023-03-21T04:26:09.903Z,0
2023-03-21T04:31:24.549Z,0
2023-03-21T04:36:27.063Z,0
2023-03-21T04:41:28.742Z,0
2023-03-21T04:46:30.386Z,0
2023-03-21T04:51:32.013Z,0
2023-03-21T04:56:33.672Z,0
2023-03-21T05:01:35.309Z,0
2023-03-21T05:06:36.998Z,0
2023-03-21T05:11:38.645Z,0
2023-03-21T05:16:40.275Z,0
2023-03-21T05:21:42.236Z,0
2023-03-21T05:26:43.891Z,0
2023-03-21T05:31:45.528Z,0
2023-03-21T05:36:47.226Z,0
2023-03-21T05:41:48.931Z,0
2023-03-21T05:46:50.861Z,0
2023-03-21T05:51:52.651Z,0
2023-03-21T05:56:54.292Z,0
2023-03-21T06:01:55.906Z,0
2023-03-21T06:06:57.552Z,0
2023-03-21T06:11:59.334Z,0
2023-03-21T06:17:00.944Z,0
2023-03-21T06:22:02.657Z,0
2023-03-21T06:27:04.393Z,0
2023-03-21T06:32:06.094Z,0
2023-03-21T06:37:07.761Z,0
2023-03-21T06:42:09.671Z,0
2023-03-21T06:47:11.291Z,0
2023-03-21T06:52:12.929Z,0
2023-03-21T06:57:14.570Z,0
2023-03-21T07:02:16.378Z,0
2023-03-21T07:07:18.010Z,0
2023-03-21T07:12:19.773Z,0
2023-03-21T07:17:21.385Z,0
2023-03-21T07:22:23.022Z,0
2023-03-21T07:27:24.754Z,0
2023-03-21T07:32:26.365Z,0
2023-03-21T07:37:27.991Z,0
2023-03-21T07:42:29.611Z,0
2023-03-21T07:47:31.240Z,0
2023-03-21T07:52:33.070Z,0
2023-03-21T07:57:34.893Z,0
2023-03-21T08:02:36.553Z,0
2023-03-21T08:07:38.248Z,0
2023-03-21T08:12:39.892Z,0
2023-03-21T08:17:41.492Z,0
2023-03-21T08:22:43.130Z,0
2023-03-21T08:27:44.747Z,0
2023-03-21T08:32:46.395Z,0
2023-03-21T08:37:48.199Z,0
2023-03-21T08:42:49.820Z,0
2023-03-21T08:47:51.597Z,0
2023-03-21T08:52:53.306Z,0
2023-03-21T08:57:54.906Z,0
2023-03-21T09:02:56.564Z,0
2023-03-21T09:07:58.167Z,0
2023-03-21T09:12:59.780Z,0
2023-03-21T09:18:01.358Z,0
2023-03-21T09:23:03.048Z,0
2023-03-21T09:28:04.667Z,0
2023-03-21T09:33:06.392Z,0
2023-03-21T09:38:08.088Z,0
2023-03-21T09:43:09.756Z,0
2023-03-21T09:48:11.890Z,0
2023-03-21T09:53:14.623Z,0
2023-03-21T09:58:16.565Z,0
2023-03-21T10:03:18.249Z,0
2023-03-21T10:08:19.978Z,0
2023-03-21T10:13:21.645Z,0
2023-03-21T10:18:23.320Z,0
2023-03-21T10:23:25.021Z,0
2023-03-21T10:28:26.676Z,0
2023-03-21T10:33:28.262Z,0
2023-03-21T10:38:30.118Z,0
2023-03-21T10:43:31.743Z,0
2023-03-21T10:48:33.487Z,0
2023-03-21T10:53:35.174Z,0
2023-03-21T10:58:36.844Z,0
2023-03-21T11:03:38.474Z,0
2023-03-21T11:08:40.088Z,0
2023-03-21T11:13:41.696Z,0
2023-03-21T11:18:43.352Z,0
2023-03-21T11:23:45.013Z,0
2023-03-21T11:28:46.699Z,0
2023-03-21T11:33:48.292Z,0
2023-03-21T11:38:49.925Z,0
2023-03-21T11:43:51.773Z,0
2023-03-21T11:48:53.595Z,0
2023-03-21T11:53:55.220Z,0
2023-03-21T11:58:56.887Z,0
2023-03-21T12:03:58.617Z,0
2023-03-21T12:09:00.312Z,0
2023-03-21T12:14:01.941Z,0
2023-03-21T12:19:03.583Z,0
2023-03-21T12:24:05.210Z,0
2023-03-21T12:29:06.842Z,0
2023-03-21T12:34:08.485Z,0
2023-03-21T12:39:10.095Z,0
2023-03-21T12:44:11.732Z,0
2023-03-21T12:49:13.346Z,0
2023-03-21T12:54:15.234Z,0
2023-03-21T12:59:16.840Z,0
2023-03-21T13:04:18.593Z,0
2023-03-21T13:09:28.394Z,0
2023-03-21T13:14:33.597Z,0
2023-03-21T13:19:35.236Z,0
2023-03-21T13:24:37.184Z,0
2023-03-21T13:29:38.838Z,0
2023-03-21T13:34:40.467Z,0.47405
2023-03-21T13:39:42.046Z,1.53075
2023-03-21T13:44:43.636Z,2.01475
2023-03-21T13:49:45.271Z,5.56965
2023-03-21T13:54:47.021Z,12.54075
2023-03-21T13:59:48.646Z,13.27855
2023-03-21T14:05:04.078Z,16.1556
2023-03-21T14:10:06.880Z,26.4278
2023-03-21T14:15:16.269Z,33.58335
2023-03-21T14:20:18.470Z,40.7389
2023-03-21T14:25:20.096Z,48.87185
2023-03-21T14:30:21.977Z,58.16665
2023-03-21T14:35:23.627Z,61.22815
2023-03-21T14:40:25.245Z,74.80145
2023-03-21T14:45:26.959Z,77.25445
2023-03-21T14:50:28.568Z,89.4263
2023-03-21T14:55:30.180Z,560.21795
2023-03-21T15:00:31.796Z,552.69275
2023-03-21T15:05:33.444Z,491.0653
2023-03-21T15:10:35.029Z,262.3318
2023-03-21T15:15:36.896Z,216.8225
2023-03-21T15:20:38.637Z,237.0295
2023-03-21T15:25:40.671Z,198.92695
2023-03-21T15:30:42.501Z,198.9822
2023-03-21T15:35:44.413Z,225.35485
2023-03-21T15:40:46.102Z,353.4568
2023-03-21T15:45:48.285Z,318.69445
2023-03-21T15:50:49.917Z,286.62285
2023-03-21T15:55:51.567Z,300.95295
2023-03-21T16:00:55.263Z,307.5
2023-03-21T16:05:57.408Z,344.66205
2023-03-21T16:10:59.236Z,312.9042
2023-03-21T16:16:00.867Z,294.3146
2023-03-21T16:21:02.537Z,325.9983
2023-03-21T16:26:04.219Z,360.6332
2023-03-21T16:31:05.879Z,366.7562
2023-03-21T16:36:07.595Z,430.6028
2023-03-21T16:41:09.207Z,474.2929
2023-03-21T16:46:10.855Z,506.18005
2023-03-21T16:51:12.439Z,499.46755
2023-03-21T16:56:14.130Z,476.72875
2023-03-21T17:01:15.909Z,403.80795
2023-03-21T17:06:17.585Z,367.47685
2023-03-21T17:11:19.253Z,327.80665
2023-03-21T17:16:20.946Z,307.2984
2023-03-21T17:21:22.565Z,307.74145
2023-03-21T17:26:24.220Z,339.31485
2023-03-21T17:31:25.991Z,348.51835
2023-03-21T17:36:27.647Z,386.45435
2023-03-21T17:41:29.248Z,406.16965
2023-03-21T17:46:30.931Z,437.0794
2023-03-21T17:51:32.588Z,432.02695
2023-03-21T17:56:34.182Z,439.0722
2023-03-21T18:01:36.016Z,423.1942
2023-03-21T18:06:37.665Z,413.4202
2023-03-21T18:11:39.296Z,412.13505
2023-03-21T18:16:41.086Z,421.26065
2023-03-21T18:21:44.955Z,420.07545
2023-03-21T18:26:46.878Z,416.1318
2023-03-21T18:32:04.424Z,396.0763
2023-03-21T18:37:07.968Z,379.8989
2023-03-21T18:42:16.714Z,364.72895
2023-03-21T18:47:19.537Z,354.0033
2023-03-21T18:52:21.131Z,339.6038
2023-03-21T18:57:38.197Z,331.6633
2023-03-21T19:02:45.493Z,311.98995
2023-03-21T19:07:48.589Z,299.1904
2023-03-21T19:12:50.228Z,297.59045
2023-03-21T19:18:30.778Z,302.62725
2023-03-21T19:24:08.004Z,301.9755
2023-03-21T19:29:25.136Z,304.2559
2023-03-21T19:34:26.888Z,307.6673
2023-03-21T19:39:28.509Z,309.991
2023-03-21T19:44:30.200Z,299.4602
2023-03-21T19:50:00.733Z,287.9315
2023-03-21T19:55:17.611Z,293.38305
2023-03-21T20:00:19.217Z,301.3827
2023-03-21T20:05:21.025Z,312.7602
2023-03-21T20:10:22.705Z,321.53025
2023-03-21T20:15:26.846Z,333.0262
2023-03-21T20:20:30.573Z,349.3812
2023-03-21T20:25:32.240Z,367.5139
2023-03-21T20:30:33.921Z,371.01
2023-03-21T20:36:24.066Z,370.89145
2023-03-21T20:41:34.593Z,368.99525
2023-03-21T20:46:37.684Z,365.91385
2023-03-21T20:57:11.536Z,374.56575
2023-03-21T21:02:13.372Z,386.89925
2023-03-21T21:07:15.140Z,422.9166
2023-03-21T21:12:16.920Z,467.62025
2023-03-21T21:17:40.667Z,496.85095
2023-03-21T21:23:00.097Z,496.2976
2023-03-21T21:28:02.418Z,502.84465
2023-03-21T21:33:04.048Z,499.4884
2023-03-21T21:38:05.737Z,508.72805
2023-03-21T21:43:07.479Z,521.0292
2023-03-21T21:48:09.244Z,523.66665
2023-03-21T21:53:10.944Z,519.88635
2023-03-21T21:58:12.821Z,523.3719
2023-03-21T22:03:14.563Z,523.2426
2023-03-21T22:08:16.209Z,533.20105
2023-03-21T22:13:17.858Z,532.83215
2023-03-21T22:18:19.487Z,529.64135
2023-03-21T22:23:21.116Z,512.9324
2023-03-21T22:28:22.907Z,497.20085
2023-03-21T22:33:24.599Z,491.2623
2023-03-21T22:38:26.226Z,472.48825
2023-03-21T22:43:27.892Z,456.83085
2023-03-21T22:48:29.589Z,438.97905
2023-03-21T22:53:31.254Z,417.2728
2023-03-21T22:58:32.933Z,385.8477
2023-03-21T23:03:34.585Z,367.63275
2023-03-21T23:08:36.239Z,359.81075
2023-03-21T23:13:37.914Z,351.3369
2023-03-21T23:18:39.623Z,345.7666
2023-03-21T23:23:41.293Z,336.93715
2023-03-21T23:28:42.963Z,325.61895
2023-03-21T23:33:44.808Z,317.20435
2023-03-21T23:38:46.674Z,305.4121
2023-03-21T23:43:48.337Z,293.67905
2023-03-21T23:48:49.998Z,282.18305
2023-03-21T23:53:51.659Z,271.9907
2023-03-21T23:58:54.033Z,262.45025
